Skopje, Macedonia
Current Conditions -  °F | °C
As of 2:00 PM on Thursday 30 Oct 2014 (Local Time) from LWSK Reporting Station
Clear Clear  
Wind Chill: 57°   Ceiling: Unl
Heat Index: 57°   Visibility: 6mi
Dew Point: 43°   Wind: 5mph
Humidity: 59%   Direction: 270°W
Pressure: 30.15"   Gusts: NA
Location:  42°N, 21.47°E
Report Text: LWSK 301200Z 27004KT CAVOK 14/06 Q1021 NOSIG
Loading
Personal Weather Stations






























Interactive Weather Map
Tropical Storm Tracking
New forecast layout! Learn more

10-Day Weather Forecast

Advertisements
Track Severe Weather on mobile